sensor_id;sensor_type;location;lat;lon;timestamp;pressure;altitude;pressure_sealevel;temperature;humidity
3434;BME280;1730;41.932;25.548;2022-12-31T00:00:33;101305.72;;;2.65;100.00
3434;BME280;1730;41.932;25.548;2022-12-31T00:02:58;101386.63;;;3.34;100.00
3434;BME280;1730;41.932;25.548;2022-12-31T00:05:24;100879.56;;;0.66;100.00
3434;BME280;1730;41.932;25.548;2022-12-31T00:07:49;101363.28;;;3.63;100.00
3434;BME280;1730;41.932;25.548;2022-12-31T00:10:15;101332.00;;;3.45;100.00
3434;BME280;1730;41.932;25.548;2022-12-31T00:12:41;101334.16;;;3.57;100.00
3434;BME280;1730;41.932;25.548;2022-12-31T00:15:06;101317.28;;;3.35;100.00
3434;BME280;1730;41.932;25.548;2022-12-31T00:17:32;101306.47;;;3.38;100.00
3434;BME280;1730;41.932;25.548;2022-12-31T00:19:58;101195.75;;;2.63;100.00
3434;BME280;1730;41.932;25.548;2022-12-31T00:22:23;101318.72;;;3.44;100.00
3434;BME280;1730;41.932;25.548;2022-12-31T00:24:49;101310.09;;;3.37;100.00
3434;BME280;1730;41.932;25.548;2022-12-31T00:27:14;101279.53;;;3.46;100.00
3434;BME280;1730;41.932;25.548;2022-12-31T00:29:40;101273.87;;;3.53;100.00
3434;BME280;1730;41.932;25.548;2022-12-31T00:32:06;101195.00;;;3.04;100.00
3434;BME280;1730;41.932;25.548;2022-12-31T00:34:31;101231.44;;;3.04;100.00
3434;BME280;1730;41.932;25.548;2022-12-31T00:36:57;101235.66;;;3.09;100.00
3434;BME280;1730;41.932;25.548;2022-12-31T00:39:22;100626.72;;;-0.83;100.00
3434;BME280;1730;41.932;25.548;2022-12-31T00:41:48;101074.34;;;1.89;100.00
3434;BME280;1730;41.932;25.548;2022-12-31T00:44:13;101254.97;;;2.93;100.00
3434;BME280;1730;41.932;25.548;2022-12-31T00:46:39;101208.59;;;2.52;100.00
3434;BME280;1730;41.932;25.548;2022-12-31T00:49:05;101106.28;;;1.64;100.00
3434;BME280;1730;41.932;25.548;2022-12-31T00:51:30;101297.72;;;2.65;100.00
3434;BME280;1730;41.932;25.548;2022-12-31T00:53:56;101286.28;;;2.63;100.00
3434;BME280;1730;41.932;25.548;2022-12-31T00:56:24;101280.94;;;2.38;100.00
3434;BME280;1730;41.932;25.548;2022-12-31T00:58:50;101230.78;;;2.03;100.00
3434;BME280;1730;41.932;25.548;2022-12-31T01:01:28;101311.00;;;2.42;100.00
3434;BME280;1730;41.932;25.548;2022-12-31T01:03:57;101323.12;;;2.24;100.00
3434;BME280;1730;41.932;25.548;2022-12-31T01:06:23;101328.13;;;2.08;100.00
3434;BME280;1730;41.932;25.548;2022-12-31T01:08:49;101326.28;;;2.10;100.00
3434;BME280;1730;41.932;25.548;2022-12-31T01:11:16;101242.38;;;1.49;100.00
3434;BME280;1730;41.932;25.548;2022-12-31T01:13:53;101377.81;;;2.08;100.00
3434;BME280;1730;41.932;25.548;2022-12-31T01:16:23;101401.03;;;2.29;100.00
3434;BME280;1730;41.932;25.548;2022-12-31T01:18:49;101347.91;;;2.00;100.00
3434;BME280;1730;41.932;25.548;2022-12-31T01:21:16;101398.69;;;2.46;100.00
3434;BME280;1730;41.932;25.548;2022-12-31T01:23:42;101365.22;;;2.39;100.00
3434;BME280;1730;41.932;25.548;2022-12-31T01:26:10;101357.12;;;2.16;100.00
3434;BME280;1730;41.932;25.548;2022-12-31T01:28:36;101332.88;;;2.25;100.00
3434;BME280;1730;41.932;25.548;2022-12-31T01:31:11;100958.09;;;0.19;100.00
3434;BME280;1730;41.932;25.548;2022-12-31T01:33:37;101299.16;;;2.25;100.00
3434;BME280;1730;41.932;25.548;2022-12-31T01:36:05;101174.66;;;1.59;100.00
3434;BME280;1730;41.932;25.548;2022-12-31T01:38:30;101297.69;;;2.17;100.00
3434;BME280;1730;41.932;25.548;2022-12-31T01:40:56;101156.91;;;1.35;100.00
3434;BME280;1730;41.932;25.548;2022-12-31T01:43:21;101273.69;;;2.18;100.00
3434;BME280;1730;41.932;25.548;2022-12-31T01:45:53;101305.66;;;2.42;100.00
3434;BME280;1730;41.932;25.548;2022-12-31T01:48:22;101168.59;;;1.80;100.00
3434;BME280;1730;41.932;25.548;2022-12-31T01:50:50;101288.16;;;2.59;100.00
3434;BME280;1730;41.932;25.548;2022-12-31T01:53:17;101296.06;;;2.62;100.00
3434;BME280;1730;41.932;25.548;2022-12-31T01:58:20;101271.16;;;2.63;100.00
3434;BME280;1730;41.932;25.548;2022-12-31T02:00:46;101284.09;;;2.74;100.00
3434;BME280;1730;41.932;25.548;2022-12-31T02:03:13;101129.09;;;1.95;100.00
3434;BME280;1730;41.932;25.548;2022-12-31T02:05:53;101130.84;;;1.96;100.00
3434;BME280;1730;41.932;25.548;2022-12-31T02:08:19;101255.72;;;2.73;100.00
3434;BME280;1730;41.932;25.548;2022-12-31T02:10:45;101244.25;;;2.94;100.00
3434;BME280;1730;41.932;25.548;2022-12-31T02:13:11;101215.38;;;2.84;100.00
3434;BME280;1730;41.932;25.548;2022-12-31T02:15:38;101197.88;;;2.77;100.00
3434;BME280;1730;41.932;25.548;2022-12-31T02:18:15;101081.13;;;2.21;100.00
3434;BME280;1730;41.932;25.548;2022-12-31T02:31:27;101135.19;;;2.68;100.00
3434;BME280;1730;41.932;25.548;2022-12-31T02:34:05;101153.66;;;2.94;100.00
3434;BME280;1730;41.932;25.548;2022-12-31T02:36:37;101151.41;;;3.07;100.00
3434;BME280;1730;41.932;25.548;2022-12-31T02:39:06;101046.06;;;2.55;100.00
3434;BME280;1730;41.932;25.548;2022-12-31T02:41:33;100996.09;;;2.18;100.00
3434;BME280;1730;41.932;25.548;2022-12-31T02:44:28;100858.91;;;1.46;100.00
3434;BME280;1730;41.932;25.548;2022-12-31T02:46:58;101119.84;;;2.75;100.00
3434;BME280;1730;41.932;25.548;2022-12-31T02:52:22;101120.63;;;2.77;100.00
3434;BME280;1730;41.932;25.548;2022-12-31T02:57:46;101105.66;;;2.74;100.00
3434;BME280;1730;41.932;25.548;2022-12-31T03:00:15;101099.72;;;2.67;100.00
3434;BME280;1730;41.932;25.548;2022-12-31T03:03:01;101092.66;;;2.66;100.00
3434;BME280;1730;41.932;25.548;2022-12-31T03:05:32;101092.00;;;2.60;100.00
3434;BME280;1730;41.932;25.548;2022-12-31T03:07:58;101103.62;;;2.59;100.00
3434;BME280;1730;41.932;25.548;2022-12-31T03:10:24;101080.09;;;2.70;100.00
3434;BME280;1730;41.932;25.548;2022-12-31T03:12:50;101054.31;;;2.70;100.00
3434;BME280;1730;41.932;25.548;2022-12-31T03:15:22;101055.09;;;2.72;100.00
3434;BME280;1730;41.932;25.548;2022-12-31T03:18:01;101053.25;;;2.75;100.00
3434;BME280;1730;41.932;25.548;2022-12-31T03:20:39;101027.06;;;2.64;100.00
3434;BME280;1730;41.932;25.548;2022-12-31T03:23:29;101041.38;;;2.83;100.00
3434;BME280;1730;41.932;25.548;2022-12-31T03:25:56;100952.91;;;2.33;100.00
3434;BME280;1730;41.932;25.548;2022-12-31T03:28:27;101025.62;;;2.77;100.00
3434;BME280;1730;41.932;25.548;2022-12-31T03:30:58;101019.31;;;2.80;100.00
3434;BME280;1730;41.932;25.548;2022-12-31T03:33:25;100980.09;;;2.41;100.00
3434;BME280;1730;41.932;25.548;2022-12-31T03:35:54;101031.13;;;2.72;100.00
3434;BME280;1730;41.932;25.548;2022-12-31T03:38:19;100908.03;;;1.80;100.00
3434;BME280;1730;41.932;25.548;2022-12-31T03:40:48;101031.47;;;2.43;100.00
3434;BME280;1730;41.932;25.548;2022-12-31T03:43:13;101069.84;;;2.81;100.00
3434;BME280;1730;41.932;25.548;2022-12-31T03:45:39;101060.19;;;2.79;100.00
3434;BME280;1730;41.932;25.548;2022-12-31T03:48:06;101045.97;;;2.80;100.00
3434;BME280;1730;41.932;25.548;2022-12-31T03:50:32;100532.72;;;0.02;100.00
3434;BME280;1730;41.932;25.548;2022-12-31T03:52:58;100997.50;;;2.50;100.00
3434;BME280;1730;41.932;25.548;2022-12-31T03:55:24;100254.31;;;-2.00;100.00
3434;BME280;1730;41.932;25.548;2022-12-31T03:57:49;100853.66;;;1.44;100.00
3434;BME280;1730;41.932;25.548;2022-12-31T04:00:17;101051.72;;;2.69;100.00
3434;BME280;1730;41.932;25.548;2022-12-31T04:02:44;101060.56;;;2.69;100.00
3434;BME280;1730;41.932;25.548;2022-12-31T04:05:10;101052.94;;;2.60;100.00
3434;BME280;1730;41.932;25.548;2022-12-31T04:07:37;101064.09;;;2.70;100.00
3434;BME280;1730;41.932;25.548;2022-12-31T04:10:04;100925.91;;;1.77;100.00
3434;BME280;1730;41.932;25.548;2022-12-31T04:12:30;101034.63;;;2.53;100.00
3434;BME280;1730;41.932;25.548;2022-12-31T04:14:56;100806.47;;;0.81;100.00
3434;BME280;1730;41.932;25.548;2022-12-31T04:17:22;101045.28;;;2.53;100.00
3434;BME280;1730;41.932;25.548;2022-12-31T04:19:48;100552.81;;;-0.39;100.00
3434;BME280;1730;41.932;25.548;2022-12-31T04:22:13;101044.72;;;2.45;100.00
3434;BME280;1730;41.932;25.548;2022-12-31T04:24:40;101051.84;;;2.66;100.00
3434;BME280;1730;41.932;25.548;2022-12-31T04:27:06;101037.78;;;2.62;100.00
3434;BME280;1730;41.932;25.548;2022-12-31T04:29:31;101030.09;;;2.55;100.00
3434;BME280;1730;41.932;25.548;2022-12-31T04:31:57;101029.53;;;2.25;100.00
3434;BME280;1730;41.932;25.548;2022-12-31T04:34:22;101044.16;;;2.37;100.00
3434;BME280;1730;41.932;25.548;2022-12-31T04:36:48;101059.06;;;2.41;100.00
3434;BME280;1730;41.932;25.548;2022-12-31T04:39:13;101046.00;;;2.11;100.00
3434;BME280;1730;41.932;25.548;2022-12-31T04:41:39;101059.78;;;2.22;100.00
3434;BME280;1730;41.932;25.548;2022-12-31T04:44:04;100869.91;;;0.88;100.00
3434;BME280;1730;41.932;25.548;2022-12-31T04:46:32;101091.03;;;2.17;100.00
3434;BME280;1730;41.932;25.548;2022-12-31T04:48:58;101097.56;;;2.09;100.00
3434;BME280;1730;41.932;25.548;2022-12-31T04:51:24;101116.19;;;2.32;100.00
3434;BME280;1730;41.932;25.548;2022-12-31T04:53:50;100988.06;;;1.50;100.00
3434;BME280;1730;41.932;25.548;2022-12-31T04:56:16;100662.59;;;-0.48;100.00
3434;BME280;1730;41.932;25.548;2022-12-31T04:58:42;101149.41;;;1.97;100.00
3434;BME280;1730;41.932;25.548;2022-12-31T05:01:08;101151.09;;;2.00;100.00
3434;BME280;1730;41.932;25.548;2022-12-31T05:03:34;101145.81;;;2.23;100.00
3434;BME280;1730;41.932;25.548;2022-12-31T05:06:06;100981.38;;;1.40;100.00
3434;BME280;1730;41.932;25.548;2022-12-31T05:08:32;101142.09;;;2.27;100.00
3434;BME280;1730;41.932;25.548;2022-12-31T05:10:58;101143.38;;;2.40;100.00
3434;BME280;1730;41.932;25.548;2022-12-31T05:13:24;101098.25;;;2.14;100.00
3434;BME280;1730;41.932;25.548;2022-12-31T05:15:50;101146.00;;;2.63;100.00
3434;BME280;1730;41.932;25.548;2022-12-31T05:18:16;101142.56;;;2.61;100.00
3434;BME280;1730;41.932;25.548;2022-12-31T05:20:41;101125.00;;;2.56;100.00
3434;BME280;1730;41.932;25.548;2022-12-31T05:23:07;101133.69;;;2.61;100.00
3434;BME280;1730;41.932;25.548;2022-12-31T05:25:33;100965.31;;;1.89;100.00
3434;BME280;1730;41.932;25.548;2022-12-31T05:27:58;100683.16;;;0.20;100.00
3434;BME280;1730;41.932;25.548;2022-12-31T05:30:24;101085.53;;;2.67;100.00
3434;BME280;1730;41.932;25.548;2022-12-31T05:32:49;101087.00;;;2.74;100.00
3434;BME280;1730;41.932;25.548;2022-12-31T05:35:16;101089.16;;;2.64;100.00
3434;BME280;1730;41.932;25.548;2022-12-31T05:37:41;101095.38;;;2.65;100.00
3434;BME280;1730;41.932;25.548;2022-12-31T05:40:08;101107.81;;;3.08;100.00
3434;BME280;1730;41.932;25.548;2022-12-31T05:42:34;100715.31;;;0.82;100.00
3434;BME280;1730;41.932;25.548;2022-12-31T05:44:59;101083.41;;;3.39;100.00
3434;BME280;1730;41.932;25.548;2022-12-31T05:47:25;101065.09;;;3.51;100.00
3434;BME280;1730;41.932;25.548;2022-12-31T05:49:50;101035.75;;;3.11;100.00
3434;BME280;1730;41.932;25.548;2022-12-31T05:52:16;100985.50;;;2.60;100.00
3434;BME280;1730;41.932;25.548;2022-12-31T05:54:42;101042.53;;;2.98;100.00
3434;BME280;1730;41.932;25.548;2022-12-31T05:57:07;101046.19;;;2.95;100.00
3434;BME280;1730;41.932;25.548;2022-12-31T05:59:33;101079.97;;;3.37;100.00
3434;BME280;1730;41.932;25.548;2022-12-31T06:01:58;101069.56;;;3.51;100.00
3434;BME280;1730;41.932;25.548;2022-12-31T06:04:24;101063.56;;;3.46;100.00
3434;BME280;1730;41.932;25.548;2022-12-31T06:06:50;101055.28;;;3.72;100.00
3434;BME280;1730;41.932;25.548;2022-12-31T06:09:16;101036.13;;;3.83;100.00
3434;BME280;1730;41.932;25.548;2022-12-31T06:11:42;101015.06;;;3.77;100.00
3434;BME280;1730;41.932;25.548;2022-12-31T06:14:08;101001.78;;;3.75;100.00
3434;BME280;1730;41.932;25.548;2022-12-31T06:16:34;100986.81;;;3.73;100.00
3434;BME280;1730;41.932;25.548;2022-12-31T06:18:59;101001.62;;;3.98;100.00
3434;BME280;1730;41.932;25.548;2022-12-31T06:21:26;100754.41;;;2.68;100.00
3434;BME280;1730;41.932;25.548;2022-12-31T06:23:51;100990.47;;;4.26;100.00
3434;BME280;1730;41.932;25.548;2022-12-31T06:26:17;100983.06;;;4.33;100.00
3434;BME280;1730;41.932;25.548;2022-12-31T06:28:42;100898.03;;;4.06;100.00
3434;BME280;1730;41.932;25.548;2022-12-31T06:31:11;100791.91;;;3.58;100.00
3434;BME280;1730;41.932;25.548;2022-12-31T06:33:37;100774.44;;;3.70;100.00
3434;BME280;1730;41.932;25.548;2022-12-31T06:36:05;100869.41;;;4.27;100.00
3434;BME280;1730;41.932;25.548;2022-12-31T06:38:32;100901.19;;;4.50;100.00
3434;BME280;1730;41.932;25.548;2022-12-31T06:41:05;100892.91;;;4.38;100.00
3434;BME280;1730;41.932;25.548;2022-12-31T06:43:31;100903.62;;;4.55;100.00
3434;BME280;1730;41.932;25.548;2022-12-31T06:46:00;100856.41;;;4.56;100.00
3434;BME280;1730;41.932;25.548;2022-12-31T06:48:26;100808.81;;;4.29;100.00
3434;BME280;1730;41.932;25.548;2022-12-31T06:50:52;100868.84;;;5.07;100.00
3434;BME280;1730;41.932;25.548;2022-12-31T06:53:17;100754.59;;;4.44;100.00
3434;BME280;1730;41.932;25.548;2022-12-31T06:55:43;100841.03;;;4.93;100.00
3434;BME280;1730;41.932;25.548;2022-12-31T06:58:12;100857.34;;;5.22;100.00
3434;BME280;1730;41.932;25.548;2022-12-31T07:06:33;100836.09;;;5.19;100.00
3434;BME280;1730;41.932;25.548;2022-12-31T07:11:59;100836.22;;;5.33;100.00
3434;BME280;1730;41.932;25.548;2022-12-31T07:17:06;100863.50;;;5.07;100.00
3434;BME280;1730;41.932;25.548;2022-12-31T07:19:47;100597.03;;;3.96;100.00
3434;BME280;1730;41.932;25.548;2022-12-31T07:22:17;100801.66;;;5.61;100.00
3434;BME280;1730;41.932;25.548;2022-12-31T07:24:43;100828.97;;;6.29;100.00
3434;BME280;1730;41.932;25.548;2022-12-31T07:35:52;100779.59;;;6.49;100.00
3434;BME280;1730;41.932;25.548;2022-12-31T07:48:28;100711.56;;;7.35;100.00
3434;BME280;1730;41.932;25.548;2022-12-31T07:50:55;100699.16;;;7.73;100.00
3434;BME280;1730;41.932;25.548;2022-12-31T07:53:25;100640.53;;;7.67;100.00
3434;BME280;1730;41.932;25.548;2022-12-31T07:55:56;100674.97;;;8.00;100.00
3434;BME280;1730;41.932;25.548;2022-12-31T08:01:00;100659.66;;;8.65;100.00
3434;BME280;1730;41.932;25.548;2022-12-31T08:06:13;100648.59;;;8.57;100.00
3434;BME280;1730;41.932;25.548;2022-12-31T08:11:27;100640.19;;;8.62;100.00
3434;BME280;1730;41.932;25.548;2022-12-31T08:13:59;100605.84;;;8.90;100.00
3434;BME280;1730;41.932;25.548;2022-12-31T08:16:25;100301.44;;;7.30;100.00
3434;BME280;1730;41.932;25.548;2022-12-31T08:18:51;100598.62;;;9.15;100.00
3434;BME280;1730;41.932;25.548;2022-12-31T08:26:37;100598.41;;;8.94;100.00
3434;BME280;1730;41.932;25.548;2022-12-31T08:34:45;100585.16;;;9.62;100.00
3434;BME280;1730;41.932;25.548;2022-12-31T08:37:42;100580.22;;;9.91;100.00
3434;BME280;1730;41.932;25.548;2022-12-31T08:46:29;100570.38;;;9.79;100.00
3434;BME280;1730;41.932;25.548;2022-12-31T08:48:56;100570.28;;;9.80;100.00
3434;BME280;1730;41.932;25.548;2022-12-31T08:51:24;100574.91;;;10.58;100.00
3434;BME280;1730;41.932;25.548;2022-12-31T08:53:51;100553.69;;;10.53;100.00
3434;BME280;1730;41.932;25.548;2022-12-31T08:59:07;100540.03;;;10.99;100.00
3434;BME280;1730;41.932;25.548;2022-12-31T09:01:55;100529.88;;;11.23;100.00
3434;BME280;1730;41.932;25.548;2022-12-31T09:07:02;100412.12;;;11.11;100.00
3434;BME280;1730;41.932;25.548;2022-12-31T09:12:17;100523.69;;;12.06;100.00
3434;BME280;1730;41.932;25.548;2022-12-31T09:14:58;100485.84;;;12.15;100.00
3434;BME280;1730;41.932;25.548;2022-12-31T09:17:45;100407.31;;;11.77;100.00
3434;BME280;1730;41.932;25.548;2022-12-31T09:20:29;100497.78;;;12.43;100.00
3434;BME280;1730;41.932;25.548;2022-12-31T09:22:57;100484.13;;;12.94;100.00
3434;BME280;1730;41.932;25.548;2022-12-31T09:25:24;100478.25;;;12.80;100.00
3434;BME280;1730;41.932;25.548;2022-12-31T09:31:11;100388.28;;;12.38;100.00
3434;BME280;1730;41.932;25.548;2022-12-31T09:33:45;100470.19;;;13.47;100.00
3434;BME280;1730;41.932;25.548;2022-12-31T09:36:22;100489.38;;;13.73;100.00
3434;BME280;1730;41.932;25.548;2022-12-31T09:39:15;100479.00;;;13.59;100.00
3434;BME280;1730;41.932;25.548;2022-12-31T09:56:44;100431.19;;;14.31;100.00
3434;BME280;1730;41.932;25.548;2022-12-31T09:59:05;100254.03;;;13.31;100.00
3434;BME280;1730;41.932;25.548;2022-12-31T10:01:59;100270.34;;;13.12;100.00
3434;BME280;1730;41.932;25.548;2022-12-31T10:10:30;100282.75;;;13.15;100.00
3434;BME280;1730;41.932;25.548;2022-12-31T10:27:19;100402.25;;;14.22;100.00
3434;BME280;1730;41.932;25.548;2022-12-31T10:30:14;100328.84;;;14.06;100.00
3434;BME280;1730;41.932;25.548;2022-12-31T10:32:50;100271.44;;;13.56;100.00
3434;BME280;1730;41.932;25.548;2022-12-31T10:35:27;100399.34;;;14.43;100.00
3434;BME280;1730;41.932;25.548;2022-12-31T10:41:07;100391.22;;;14.61;100.00
3434;BME280;1730;41.932;25.548;2022-12-31T11:00:52;100366.37;;;15.09;100.00
3434;BME280;1730;41.932;25.548;2022-12-31T11:28:03;100342.88;;;15.77;100.00
3434;BME280;1730;41.932;25.548;2022-12-31T11:31:26;100342.37;;;15.73;100.00
3434;BME280;1730;41.932;25.548;2022-12-31T11:33:46;100312.94;;;15.69;100.00
3434;BME280;1730;41.932;25.548;2022-12-31T11:41:51;100335.06;;;16.16;100.00
3434;BME280;1730;41.932;25.548;2022-12-31T11:50:28;100333.69;;;16.12;100.00
3434;BME280;1730;41.932;25.548;2022-12-31T11:58:19;100325.31;;;16.63;100.00
3434;BME280;1730;41.932;25.548;2022-12-31T12:00:55;100316.56;;;16.28;100.00
3434;BME280;1730;41.932;25.548;2022-12-31T12:03:21;100318.44;;;16.35;100.00
3434;BME280;1730;41.932;25.548;2022-12-31T12:05:48;100319.38;;;16.68;100.00
3434;BME280;1730;41.932;25.548;2022-12-31T12:08:14;100226.16;;;15.92;100.00
3434;BME280;1730;41.932;25.548;2022-12-31T12:10:45;100318.09;;;16.30;100.00
3434;BME280;1730;41.932;25.548;2022-12-31T12:15:44;100265.28;;;15.99;100.00
3434;BME280;1730;41.932;25.548;2022-12-31T12:18:38;100219.06;;;16.15;100.00
3434;BME280;1730;41.932;25.548;2022-12-31T12:21:13;100178.56;;;16.04;100.00
3434;BME280;1730;41.932;25.548;2022-12-31T12:24:37;100304.72;;;16.61;100.00
3434;BME280;1730;41.932;25.548;2022-12-31T12:26:40;100309.69;;;16.82;100.00
3434;BME280;1730;41.932;25.548;2022-12-31T12:31:39;100307.47;;;16.77;100.00
3434;BME280;1730;41.932;25.548;2022-12-31T12:34:05;100308.31;;;16.78;100.00
3434;BME280;1730;41.932;25.548;2022-12-31T12:36:46;100291.47;;;16.66;100.00
3434;BME280;1730;41.932;25.548;2022-12-31T12:39:33;100315.81;;;16.76;100.00
3434;BME280;1730;41.932;25.548;2022-12-31T12:42:18;100310.00;;;16.95;100.00
3434;BME280;1730;41.932;25.548;2022-12-31T12:44:44;99945.59;;;14.81;100.00
3434;BME280;1730;41.932;25.548;2022-12-31T12:47:14;100305.06;;;16.90;100.00
3434;BME280;1730;41.932;25.548;2022-12-31T12:49:45;100319.16;;;17.34;100.00
3434;BME280;1730;41.932;25.548;2022-12-31T13:08:35;100247.47;;;16.29;100.00
3434;BME280;1730;41.932;25.548;2022-12-31T13:13:49;100335.03;;;16.58;100.00
3434;BME280;1730;41.932;25.548;2022-12-31T13:19:18;100334.84;;;16.67;100.00
3434;BME280;1730;41.932;25.548;2022-12-31T13:21:52;100331.97;;;16.61;100.00
3434;BME280;1730;41.932;25.548;2022-12-31T13:26:58;100214.72;;;15.72;100.00
3434;BME280;1730;41.932;25.548;2022-12-31T13:29:29;100321.53;;;16.56;100.00
3434;BME280;1730;41.932;25.548;2022-12-31T13:31:59;100329.22;;;16.53;100.00
3434;BME280;1730;41.932;25.548;2022-12-31T13:34:33;100329.38;;;16.51;100.00
3434;BME280;1730;41.932;25.548;2022-12-31T13:37:31;100326.47;;;16.45;100.00
3434;BME280;1730;41.932;25.548;2022-12-31T13:40:06;100304.97;;;16.26;100.00
3434;BME280;1730;41.932;25.548;2022-12-31T13:43:14;100232.56;;;15.66;100.00
3434;BME280;1730;41.932;25.548;2022-12-31T13:45:43;100273.16;;;15.68;100.00
3434;BME280;1730;41.932;25.548;2022-12-31T13:48:18;100262.91;;;15.54;100.00
3434;BME280;1730;41.932;25.548;2022-12-31T13:50:58;100330.56;;;15.99;100.00
3434;BME280;1730;41.932;25.548;2022-12-31T13:53:35;100324.94;;;15.92;100.00
3434;BME280;1730;41.932;25.548;2022-12-31T13:56:10;100310.63;;;15.82;100.00
3434;BME280;1730;41.932;25.548;2022-12-31T13:58:43;100333.56;;;15.80;100.00
3434;BME280;1730;41.932;25.548;2022-12-31T14:01:28;100342.03;;;15.76;100.00
3434;BME280;1730;41.932;25.548;2022-12-31T14:07:12;100347.47;;;15.76;100.00
3434;BME280;1730;41.932;25.548;2022-12-31T14:09:40;100353.53;;;15.45;100.00
3434;BME280;1730;41.932;25.548;2022-12-31T14:17:57;100362.66;;;14.74;100.00
3434;BME280;1730;41.932;25.548;2022-12-31T14:25:54;100385.44;;;14.46;100.00
3434;BME280;1730;41.932;25.548;2022-12-31T14:28:39;100381.38;;;14.32;100.00
3434;BME280;1730;41.932;25.548;2022-12-31T14:31:19;100362.31;;;13.87;100.00
3434;BME280;1730;41.932;25.548;2022-12-31T14:34:55;100396.44;;;13.90;100.00
3434;BME280;1730;41.932;25.548;2022-12-31T14:37:00;100332.28;;;13.34;100.00
3434;BME280;1730;41.932;25.548;2022-12-31T14:50:52;100438.78;;;12.96;100.00
3434;BME280;1730;41.932;25.548;2022-12-31T14:53:22;100411.00;;;12.75;100.00
3434;BME280;1730;41.932;25.548;2022-12-31T14:56:04;100418.38;;;12.54;100.00
3434;BME280;1730;41.932;25.548;2022-12-31T14:58:38;100327.75;;;12.00;100.00
3434;BME280;1730;41.932;25.548;2022-12-31T15:01:30;100427.91;;;12.48;100.00
3434;BME280;1730;41.932;25.548;2022-12-31T15:03:56;100387.38;;;12.08;100.00
3434;BME280;1730;41.932;25.548;2022-12-31T15:22:23;100496.09;;;11.50;100.00
3434;BME280;1730;41.932;25.548;2022-12-31T15:24:52;100500.34;;;11.43;100.00
3434;BME280;1730;41.932;25.548;2022-12-31T15:27:37;100491.84;;;11.26;100.00
3434;BME280;1730;41.932;25.548;2022-12-31T15:30:25;100485.69;;;10.93;100.00
3434;BME280;1730;41.932;25.548;2022-12-31T15:32:53;100524.03;;;11.07;100.00
3434;BME280;1730;41.932;25.548;2022-12-31T15:38:15;100540.66;;;10.92;100.00
3434;BME280;1730;41.932;25.548;2022-12-31T15:40:47;100545.34;;;10.67;100.00
3434;BME280;1730;41.932;25.548;2022-12-31T15:43:25;100527.12;;;10.49;100.00
3434;BME280;1730;41.932;25.548;2022-12-31T15:45:53;100575.28;;;10.53;100.00
3434;BME280;1730;41.932;25.548;2022-12-31T15:48:25;100578.84;;;10.43;100.00
3434;BME280;1730;41.932;25.548;2022-12-31T15:50:55;100587.78;;;10.32;100.00
3434;BME280;1730;41.932;25.548;2022-12-31T15:53:41;100481.00;;;9.63;100.00
3434;BME280;1730;41.932;25.548;2022-12-31T15:56:16;100593.78;;;10.24;100.00
3434;BME280;1730;41.932;25.548;2022-12-31T15:58:44;100462.81;;;9.31;100.00
3434;BME280;1730;41.932;25.548;2022-12-31T16:01:21;100152.34;;;7.39;100.00
3434;BME280;1730;41.932;25.548;2022-12-31T16:03:56;100609.53;;;10.07;100.00
3434;BME280;1730;41.932;25.548;2022-12-31T16:06:25;100598.75;;;10.07;100.00
3434;BME280;1730;41.932;25.548;2022-12-31T16:08:51;100578.88;;;9.85;100.00
3434;BME280;1730;41.932;25.548;2022-12-31T16:11:17;100603.97;;;9.86;100.00
3434;BME280;1730;41.932;25.548;2022-12-31T16:13:45;100501.41;;;9.08;100.00
3434;BME280;1730;41.932;25.548;2022-12-31T16:16:23;100630.34;;;9.70;100.00
3434;BME280;1730;41.932;25.548;2022-12-31T16:18:50;100634.38;;;9.64;100.00
3434;BME280;1730;41.932;25.548;2022-12-31T16:23:52;100336.81;;;7.48;100.00
3434;BME280;1730;41.932;25.548;2022-12-31T16:26:18;100662.97;;;9.18;100.00
3434;BME280;1730;41.932;25.548;2022-12-31T16:28:48;100334.81;;;7.26;100.00
3434;BME280;1730;41.932;25.548;2022-12-31T16:31:16;100667.59;;;9.28;100.00
3434;BME280;1730;41.932;25.548;2022-12-31T16:33:43;100327.81;;;7.11;100.00
3434;BME280;1730;41.932;25.548;2022-12-31T16:36:22;100676.81;;;9.00;100.00
3434;BME280;1730;41.932;25.548;2022-12-31T16:38:48;100641.38;;;8.70;100.00
3434;BME280;1730;41.932;25.548;2022-12-31T16:43:40;100725.34;;;8.74;100.00
3434;BME280;1730;41.932;25.548;2022-12-31T16:46:10;100719.25;;;8.72;100.00
3434;BME280;1730;41.932;25.548;2022-12-31T16:48:40;100722.78;;;8.72;100.00
3434;BME280;1730;41.932;25.548;2022-12-31T16:51:14;100564.06;;;7.72;100.00
3434;BME280;1730;41.932;25.548;2022-12-31T16:53:42;100599.22;;;7.82;100.00
3434;BME280;1730;41.932;25.548;2022-12-31T16:56:09;100722.03;;;8.57;100.00
3434;BME280;1730;41.932;25.548;2022-12-31T16:58:41;100714.56;;;8.23;100.00
3434;BME280;1730;41.932;25.548;2022-12-31T17:01:24;100724.16;;;8.40;100.00
3434;BME280;1730;41.932;25.548;2022-12-31T17:03:54;100739.13;;;8.44;100.00
3434;BME280;1730;41.932;25.548;2022-12-31T17:06:22;100729.81;;;8.23;100.00
3434;BME280;1730;41.932;25.548;2022-12-31T17:11:56;100766.88;;;8.18;100.00
3434;BME280;1730;41.932;25.548;2022-12-31T17:14:27;100757.22;;;8.15;100.00
3434;BME280;1730;41.932;25.548;2022-12-31T17:17:05;100763.50;;;8.01;100.00
3434;BME280;1730;41.932;25.548;2022-12-31T17:19:42;100784.44;;;7.96;100.00
3434;BME280;1730;41.932;25.548;2022-12-31T17:22:30;100780.13;;;7.94;100.00
3434;BME280;1730;41.932;25.548;2022-12-31T17:25:17;100783.69;;;7.67;100.00
3434;BME280;1730;41.932;25.548;2022-12-31T17:28:06;100695.56;;;6.78;100.00
3434;BME280;1730;41.932;25.548;2022-12-31T17:33:00;100858.34;;;7.47;100.00
3434;BME280;1730;41.932;25.548;2022-12-31T17:35:30;100870.06;;;7.46;100.00
3434;BME280;1730;41.932;25.548;2022-12-31T17:43:32;100901.59;;;7.28;100.00
3434;BME280;1730;41.932;25.548;2022-12-31T17:45:58;100796.81;;;6.59;100.00
3434;BME280;1730;41.932;25.548;2022-12-31T17:48:24;100907.63;;;7.32;100.00